Time;durP1;ratioP1;P1;durP2;ratioP2;P2;SDS_P1;SDS_P2;PMS_P1;PMS_P2;Temp;Humidity;BMP_temperature;BMP_pressure;BME280_temperature;BME280_humidity;BME280_pressure;Samples;Min_cycle;Max_cycle;Signal;HPM_P1;HPM_P2
2024/01/18 00:01:34;;;;;;;29.95;15.35;;;-3.30;99.90;;;;;;5091665;28;20414;-65
2024/01/18 00:04:00;;;;;;;21.08;11.95;;;-3.00;99.90;;;;;;5092412;28;20036;-64
2024/01/18 00:06:27;;;;;;;21.80;12.93;;;-3.10;99.90;;;;;;5078483;28;20623;-65
2024/01/18 00:08:53;;;;;;;23.73;11.15;;;-3.30;99.90;;;;;;5075861;28;20130;-65
2024/01/18 00:11:19;;;;;;;19.60;12.23;;;-3.30;99.90;;;;;;5075313;28;20268;-65
2024/01/18 00:13:45;;;;;;;19.90;10.88;;;-2.90;99.90;;;;;;5092141;28;20039;-65
2024/01/18 00:16:11;;;;;;;20.65;10.35;;;-3.00;99.90;;;;;;5092920;28;20255;-66
2024/01/18 00:18:36;;;;;;;17.08;9.68;;;-3.20;99.90;;;;;;5075179;28;20097;-65
2024/01/18 00:21:04;;;;;;;16.65;9.15;;;-3.10;99.90;;;;;;5075511;28;20089;-65
2024/01/18 00:23:30;;;;;;;17.48;10.02;;;-3.20;99.90;;;;;;5092202;28;20495;-65
2024/01/18 00:25:56;;;;;;;15.85;8.13;;;-3.40;99.90;;;;;;5092557;28;20741;-64
2024/01/18 00:28:22;;;;;;;15.88;8.32;;;-3.10;99.90;;;;;;5058695;28;20032;-64
2024/01/18 00:30:47;;;;;;;20.52;10.07;;;-3.30;99.90;;;;;;5092168;28;20501;-64
2024/01/18 00:33:13;;;;;;;15.38;7.30;;;-3.40;99.90;;;;;;5074333;28;20056;-64
2024/01/18 00:35:39;;;;;;;12.30;6.90;;;-3.10;99.90;;;;;;5074666;28;20070;-64
2024/01/18 00:38:05;;;;;;;14.27;7.63;;;-3.20;99.90;;;;;;5057575;28;20293;-65
2024/01/18 00:40:31;;;;;;;11.77;4.93;;;-3.40;99.90;;;;;;5091073;28;20505;-64
2024/01/18 00:42:56;;;;;;;11.75;5.70;;;-3.10;99.90;;;;;;5074443;28;20443;-65
2024/01/18 00:45:22;;;;;;;10.50;4.90;;;-3.00;99.90;;;;;;5074254;28;20666;-64
2024/01/18 00:47:48;;;;;;;11.43;5.90;;;-3.10;99.90;;;;;;5092164;28;20282;-64
2024/01/18 00:50:14;;;;;;;10.40;5.40;;;-3.30;99.90;;;;;;5082265;28;20387;-64
2024/01/18 00:52:40;;;;;;;11.30;5.68;;;-3.00;99.90;;;;;;5074198;28;20966;-64
2024/01/18 00:55:06;;;;;;;8.65;4.15;;;-3.10;99.90;;;;;;5075088;28;20074;-64
2024/01/18 00:57:33;;;;;;;5.97;2.70;;;-3.10;99.90;;;;;;5075859;28;20138;-63
2024/01/18 00:59:59;;;;;;;8.35;3.70;;;-3.00;99.90;;;;;;5059021;28;20112;-66
2024/01/18 01:02:25;;;;;;;7.30;3.40;;;-3.40;99.90;;;;;;5074724;28;20047;-63
2024/01/18 01:04:51;;;;;;;10.23;2.70;;;-3.00;99.90;;;;;;5077429;28;20433;-63
2024/01/18 01:07:17;;;;;;;10.77;3.92;;;-2.90;99.90;;;;;;5074606;28;20039;-64
2024/01/18 01:09:43;;;;;;;8.70;2.70;;;-2.90;99.90;;;;;;5073784;28;20101;-65
2024/01/18 01:12:09;;;;;;;10.75;2.80;;;-3.30;99.90;;;;;;5091368;28;20122;-65
2024/01/18 01:14:34;;;;;;;6.82;2.22;;;-3.30;99.90;;;;;;5059635;28;20042;-64
2024/01/18 01:17:00;;;;;;;6.40;1.50;;;-3.10;99.90;;;;;;5077467;28;20539;-63
2024/01/18 01:19:26;;;;;;;7.72;2.40;;;-3.00;99.90;;;;;;5076922;28;20043;-63
2024/01/18 01:21:52;;;;;;;9.98;2.38;;;-3.30;99.90;;;;;;5097916;27;20082;-64
2024/01/18 01:24:17;;;;;;;7.53;1.88;;;-3.10;99.90;;;;;;5093835;27;20305;-64
2024/01/18 01:26:43;;;;;;;4.53;1.63;;;-3.20;99.90;;;;;;5076457;28;20036;-63
2024/01/18 01:29:10;;;;;;;8.55;1.27;;;-3.20;99.90;;;;;;5077378;28;20287;-62
2024/01/18 01:31:36;;;;;;;8.98;1.55;;;-3.00;99.90;;;;;;5093430;28;20038;-63
2024/01/18 01:34:02;;;;;;;3.20;0.60;;;-3.30;99.90;;;;;;5076689;28;20215;-62
2024/01/18 01:36:27;;;;;;;4.07;0.60;;;-3.10;99.90;;;;;;5043819;28;20043;-63
2024/01/18 01:38:53;;;;;;;5.95;0.60;;;-3.00;99.90;;;;;;5109960;27;20731;-62
2024/01/18 01:41:20;;;;;;;5.82;0.57;;;-2.80;99.90;;;;;;5093825;28;20049;-64
2024/01/18 01:43:58;;;;;;;3.90;0.43;;;-2.30;99.90;;;;;;5076533;28;20040;-63
2024/01/18 01:46:25;;;;;;;8.35;0.63;;;-2.10;99.90;;;;;;5080865;28;20039;-63
2024/01/18 01:48:55;;;;;;;4.80;0.30;;;-2.10;99.90;;;;;;5128049;27;20615;-63
2024/01/18 01:51:22;;;;;;;3.58;0.20;;;-1.90;99.90;;;;;;5093371;28;20039;-63
2024/01/18 01:53:47;;;;;;;7.35;0.30;;;-1.90;99.90;;;;;;5077650;28;20106;-63
2024/01/18 01:56:13;;;;;;;4.00;0.20;;;-1.60;99.90;;;;;;5076687;28;20066;-64
2024/01/18 01:58:39;;;;;;;7.00;0.40;;;-1.30;99.90;;;;;;5076370;28;20048;-63
2024/01/18 02:01:05;;;;;;;6.43;0.70;;;-1.30;99.90;;;;;;5092877;28;20043;-63
2024/01/18 02:03:32;;;;;;;4.95;0.60;;;-1.30;99.90;;;;;;5092354;28;20040;-63
2024/01/18 02:05:58;;;;;;;2.03;0.30;;;-1.40;99.90;;;;;;5094579;28;20558;-65
2024/01/18 02:08:24;;;;;;;9.73;0.30;;;-1.10;99.90;;;;;;5045784;28;20042;-64
2024/01/18 02:10:50;;;;;;;5.13;0.20;;;-1.40;99.90;;;;;;5094056;28;20489;-64
2024/01/18 02:13:17;;;;;;;5.55;0.22;;;-1.20;99.90;;;;;;5093676;28;20047;-64
2024/01/18 02:15:43;;;;;;;9.82;0.50;;;-1.20;99.90;;;;;;5095243;28;20051;-64
2024/01/18 02:18:09;;;;;;;3.17;0.20;;;-1.00;99.90;;;;;;5075970;28;20043;-63
2024/01/18 02:20:35;;;;;;;4.75;0.30;;;-1.00;99.90;;;;;;5059769;28;20172;-64
2024/01/18 02:23:03;;;;;;;5.20;0.20;;;-1.40;99.90;;;;;;5076555;28;20538;-64
2024/01/18 02:25:29;;;;;;;5.68;0.20;;;-1.70;99.90;;;;;;5093121;28;20456;-64
2024/01/18 02:27:56;;;;;;;3.00;0.20;;;-1.60;99.90;;;;;;5079291;28;20063;-65
2024/01/18 02:30:22;;;;;;;2.90;0.30;;;-1.50;99.90;;;;;;5110407;27;20091;-62
2024/01/18 02:32:48;;;;;;;4.50;0.30;;;-1.70;99.90;;;;;;5093082;28;20060;-63
2024/01/18 02:35:15;;;;;;;3.58;0.47;;;-2.00;99.90;;;;;;5094416;28;20051;-63
2024/01/18 02:37:41;;;;;;;7.00;0.30;;;-1.70;99.90;;;;;;5092356;28;20078;-62
2024/01/18 02:40:08;;;;;;;6.00;0.17;;;-1.80;99.90;;;;;;5092678;28;20058;-64
2024/01/18 02:42:34;;;;;;;4.95;0.20;;;-1.80;99.90;;;;;;5075664;28;20043;-64
2024/01/18 02:45:02;;;;;;;4.93;0.20;;;-1.90;99.90;;;;;;5092789;28;20040;-63
2024/01/18 02:47:28;;;;;;;6.38;0.20;;;-2.20;99.90;;;;;;5092179;28;20036;-63
2024/01/18 02:49:56;;;;;;;8.18;0.20;;;-2.00;99.90;;;;;;5096666;27;20409;-63
2024/01/18 02:52:21;;;;;;;7.80;0.40;;;-2.20;99.90;;;;;;5093128;28;20043;-64
2024/01/18 02:54:47;;;;;;;3.05;0.43;;;-2.40;99.90;;;;;;5093339;28;20066;-64
2024/01/18 02:57:13;;;;;;;6.32;0.30;;;-2.20;99.90;;;;;;5079834;28;20051;-63
2024/01/18 02:59:39;;;;;;;6.95;0.30;;;-2.20;99.90;;;;;;5075736;28;20039;-63
2024/01/18 03:02:05;;;;;;;6.80;0.30;;;-2.40;99.90;;;;;;5075081;28;20039;-63
2024/01/18 03:04:31;;;;;;;5.88;0.30;;;-2.20;99.90;;;;;;5126084;27;20046;-64
2024/01/18 03:07:00;;;;;;;4.75;0.30;;;-2.00;99.90;;;;;;5075392;28;20089;-63
2024/01/18 03:09:26;;;;;;;2.78;0.30;;;-1.80;99.90;;;;;;5075929;28;20035;-63
2024/01/18 03:11:52;;;;;;;3.60;0.50;;;-2.20;99.90;;;;;;5075340;28;20070;-63
2024/01/18 03:14:20;;;;;;;5.13;0.50;;;-2.30;99.90;;;;;;5091731;28;20338;-64
2024/01/18 03:16:46;;;;;;;6.88;0.30;;;-2.30;99.90;;;;;;5078784;28;20527;-63
2024/01/18 03:19:14;;;;;;;8.25;0.75;;;-1.90;99.90;;;;;;5079374;28;20122;-64
2024/01/18 03:21:40;;;;;;;4.35;0.50;;;-1.80;99.90;;;;;;5079226;28;20040;-63
2024/01/18 03:24:06;;;;;;;6.03;0.30;;;-2.00;99.90;;;;;;5096643;28;20081;-63
2024/01/18 03:26:33;;;;;;;4.13;0.30;;;-1.80;99.90;;;;;;5079501;28;20079;-64
2024/01/18 03:28:59;;;;;;;5.28;0.30;;;-2.00;99.90;;;;;;5096146;28;20044;-63
2024/01/18 03:31:25;;;;;;;6.13;0.30;;;-1.80;99.90;;;;;;5096191;28;20039;-63
2024/01/18 03:33:50;;;;;;;3.72;0.30;;;-1.70;99.90;;;;;;5079998;28;20058;-62
2024/01/18 03:36:17;;;;;;;6.35;0.40;;;-1.40;99.90;;;;;;5080129;28;20051;-64
2024/01/18 03:38:43;;;;;;;6.00;0.43;;;-1.50;99.90;;;;;;5097235;28;20032;-63
2024/01/18 03:41:09;;;;;;;9.40;0.50;;;-1.60;99.90;;;;;;5079971;28;20052;-63
2024/01/18 03:43:35;;;;;;;3.22;0.40;;;-1.20;99.90;;;;;;5062871;28;20050;-62
2024/01/18 03:46:02;;;;;;;7.90;0.40;;;-0.80;99.90;;;;;;5080709;28;20585;-62
2024/01/18 03:48:27;;;;;;;5.85;0.50;;;-1.40;99.90;;;;;;5099092;28;20518;-65
2024/01/18 03:50:53;;;;;;;7.38;0.30;;;-1.10;99.90;;;;;;5096553;28;20649;-63
2024/01/18 03:53:22;;;;;;;8.25;0.50;;;-1.20;99.90;;;;;;5081188;28;20454;-63
2024/01/18 03:55:48;;;;;;;3.90;0.30;;;-1.20;99.90;;;;;;5098779;28;20039;-63
2024/01/18 03:58:13;;;;;;;3.80;0.30;;;-0.80;99.90;;;;;;5114812;27;20044;-63
2024/01/18 04:00:39;;;;;;;5.07;0.30;;;-0.80;99.90;;;;;;5098339;28;20070;-64
2024/01/18 04:03:08;;;;;;;3.50;0.40;;;-0.90;99.90;;;;;;5099313;28;20410;-62
2024/01/18 04:05:34;;;;;;;4.70;0.40;;;-1.00;99.90;;;;;;5098159;28;20039;-63
2024/01/18 04:08:00;;;;;;;3.65;0.20;;;-1.00;99.90;;;;;;5115714;27;20046;-62
2024/01/18 04:10:25;;;;;;;3.28;0.20;;;-0.50;99.90;;;;;;5098911;28;20060;-62
2024/01/18 04:12:51;;;;;;;2.78;0.10;;;-0.40;99.90;;;;;;5099928;28;20039;-64
2024/01/18 04:15:18;;;;;;;3.03;0.10;;;-0.20;99.90;;;;;;5098403;28;20055;-63
2024/01/18 04:17:44;;;;;;;4.78;0.20;;;-0.70;99.90;;;;;;5097686;28;20047;-63
2024/01/18 04:20:13;;;;;;;4.95;0.20;;;-0.20;99.90;;;;;;5081249;28;20039;-63
2024/01/18 04:22:39;;;;;;;2.85;0.10;;;0.10;99.90;;;;;;5080808;28;20130;-63
2024/01/18 04:25:05;;;;;;;3.75;0.20;;;-0.30;99.90;;;;;;5080197;28;20546;-63
2024/01/18 04:27:31;;;;;;;3.42;0.20;;;0.00;99.90;;;;;;5063351;28;20386;-63
2024/01/18 04:29:57;;;;;;;5.05;0.20;;;-0.50;99.90;;;;;;5080821;28;20032;-63
2024/01/18 04:32:23;;;;;;;4.30;0.20;;;-0.10;99.90;;;;;;5080114;28;20339;-63
2024/01/18 04:34:49;;;;;;;4.90;0.20;;;-0.30;99.90;;;;;;5064771;28;20372;-65
2024/01/18 04:37:15;;;;;;;3.22;0.20;;;-0.70;99.90;;;;;;5080984;28;20051;-63
2024/01/18 04:39:41;;;;;;;2.63;0.20;;;-0.50;99.90;;;;;;5097755;27;20091;-65
2024/01/18 04:42:08;;;;;;;4.07;0.30;;;-0.70;99.90;;;;;;5097725;28;20043;-64
2024/01/18 04:44:34;;;;;;;4.68;0.28;;;-1.00;99.90;;;;;;5080617;28;20069;-64
2024/01/18 04:47:00;;;;;;;5.85;0.45;;;-0.90;99.90;;;;;;5081393;28;20039;-64
2024/01/18 04:49:26;;;;;;;7.03;0.40;;;-1.30;99.90;;;;;;5081365;28;20043;-64
2024/01/18 04:51:52;;;;;;;4.07;0.38;;;-1.60;99.90;;;;;;5081335;28;20032;-64
2024/01/18 04:54:18;;;;;;;3.47;0.30;;;-1.10;99.90;;;;;;5081337;28;20047;-64
2024/01/18 04:56:43;;;;;;;6.50;0.50;;;-1.60;99.90;;;;;;5098103;28;20108;-64
2024/01/18 04:59:09;;;;;;;10.93;1.02;;;-1.00;99.90;;;;;;5097441;28;20439;-63
2024/01/18 05:01:39;;;;;;;9.48;0.40;;;-1.20;99.90;;;;;;5080582;28;20032;-64
2024/01/18 05:04:05;;;;;;;5.38;0.50;;;-1.20;99.90;;;;;;5097522;28;20065;-63
2024/01/18 05:06:31;;;;;;;4.50;0.70;;;-1.90;99.90;;;;;;5081274;28;20036;-63
2024/01/18 05:08:57;;;;;;;7.20;0.57;;;-1.40;99.90;;;;;;5080806;28;20034;-62
2024/01/18 05:11:25;;;;;;;2.78;0.40;;;-2.10;99.90;;;;;;5098432;28;20118;-63
2024/01/18 05:13:51;;;;;;;6.15;0.50;;;-1.90;99.90;;;;;;5096517;28;20032;-63
2024/01/18 05:16:18;;;;;;;3.58;0.40;;;-1.80;99.90;;;;;;5096285;28;20551;-64
2024/01/18 05:18:44;;;;;;;2.90;0.68;;;-2.30;99.90;;;;;;5095331;28;20184;-64
2024/01/18 05:21:10;;;;;;;4.15;0.60;;;-2.20;99.90;;;;;;5095237;28;20085;-66
2024/01/18 05:23:36;;;;;;;4.95;0.63;;;-2.00;99.90;;;;;;5077743;28;20666;-64
2024/01/18 05:26:03;;;;;;;6.80;1.13;;;-2.70;99.90;;;;;;5095223;28;20055;-63
2024/01/18 05:28:29;;;;;;;9.30;1.00;;;-2.90;99.90;;;;;;5065308;28;20071;-64
2024/01/18 05:30:56;;;;;;;5.40;0.73;;;-2.70;99.90;;;;;;5095188;28;20591;-63
2024/01/18 05:33:23;;;;;;;3.92;0.82;;;-2.90;99.90;;;;;;5100676;27;20111;-64
2024/01/18 05:35:50;;;;;;;11.18;0.82;;;-2.70;99.90;;;;;;5077906;28;20468;-64
2024/01/18 05:38:16;;;;;;;5.93;0.80;;;-2.70;99.90;;;;;;5093538;28;20127;-64
2024/01/18 05:40:42;;;;;;;4.82;0.75;;;-2.60;99.90;;;;;;5083213;28;20236;-64
2024/01/18 05:43:08;;;;;;;5.53;0.70;;;-2.60;99.90;;;;;;5093904;28;20136;-62
2024/01/18 05:45:34;;;;;;;9.38;0.90;;;-3.20;99.90;;;;;;5077800;28;20043;-62
2024/01/18 05:48:01;;;;;;;8.15;1.35;;;-3.20;99.90;;;;;;5077794;28;20079;-63
2024/01/18 05:50:27;;;;;;;15.02;1.42;;;-3.20;99.90;;;;;;5094370;28;20039;-63
2024/01/18 05:52:53;;;;;;;5.13;0.80;;;-3.20;99.90;;;;;;5096061;28;20047;-63
2024/01/18 05:55:19;;;;;;;10.43;1.02;;;-3.30;99.90;;;;;;5094149;28;20505;-64
2024/01/18 05:57:45;;;;;;;4.82;0.63;;;-2.80;99.90;;;;;;5095316;28;20051;-63
2024/01/18 06:00:12;;;;;;;7.00;0.75;;;-2.60;99.90;;;;;;5094784;28;20154;-63
2024/01/18 06:02:38;;;;;;;7.00;1.00;;;-2.80;99.90;;;;;;5077848;28;20036;-63
2024/01/18 06:05:04;;;;;;;6.88;0.90;;;-2.50;99.90;;;;;;5098407;27;20086;-63
2024/01/18 06:07:30;;;;;;;8.65;0.73;;;-2.00;99.90;;;;;;5095203;28;20488;-67
2024/01/18 06:09:55;;;;;;;10.38;0.93;;;-2.10;99.90;;;;;;5095842;28;20027;-64
2024/01/18 06:12:21;;;;;;;5.50;0.57;;;-1.90;99.90;;;;;;5077768;28;20062;-63
2024/01/18 06:14:47;;;;;;;5.53;0.60;;;-1.20;99.90;;;;;;5061772;28;20043;-63
2024/01/18 06:17:13;;;;;;;8.00;0.70;;;-1.10;99.90;;;;;;5065820;28;20604;-63
2024/01/18 06:19:38;;;;;;;6.35;0.40;;;-1.10;99.90;;;;;;5078185;28;20801;-64
2024/01/18 06:22:04;;;;;;;5.25;0.40;;;-1.70;99.90;;;;;;5060620;28;20039;-63
2024/01/18 06:24:30;;;;;;;7.57;0.80;;;-1.50;99.90;;;;;;5078350;28;20078;-63
2024/01/18 06:26:56;;;;;;;4.00;0.30;;;-1.20;99.90;;;;;;5095289;28;20045;-65
2024/01/18 06:29:27;;;;;;;4.53;0.30;;;-1.40;99.90;;;;;;5078575;28;20071;-63
2024/01/18 06:31:53;;;;;;;8.75;0.60;;;-1.50;99.90;;;;;;5056473;28;20039;-63
2024/01/18 06:34:19;;;;;;;5.53;0.20;;;-0.70;99.90;;;;;;5049795;28;20058;-62
2024/01/18 06:36:45;;;;;;;5.85;0.20;;;-1.30;99.90;;;;;;5099344;27;20181;-63
2024/01/18 06:39:11;;;;;;;7.55;0.20;;;-1.20;99.90;;;;;;5061660;28;20335;-63
2024/01/18 06:41:36;;;;;;;3.50;0.20;;;-1.10;99.90;;;;;;5094674;28;20040;-62
2024/01/18 06:44:02;;;;;;;5.38;0.10;;;-0.40;99.90;;;;;;5078114;28;20122;-65
2024/01/18 06:46:29;;;;;;;3.85;0.20;;;-0.40;99.90;;;;;;5095736;28;20266;-63
2024/01/18 06:48:57;;;;;;;3.38;0.20;;;-0.70;99.90;;;;;;5128479;27;20050;-64
2024/01/18 06:51:23;;;;;;;4.28;0.20;;;-1.30;99.90;;;;;;5095912;28;20051;-63
2024/01/18 06:53:52;;;;;;;2.28;0.10;;;-1.40;99.90;;;;;;5094681;28;21580;-64
2024/01/18 06:56:18;;;;;;;5.05;0.30;;;-1.30;99.90;;;;;;5078052;28;20036;-63
2024/01/18 06:58:44;;;;;;;2.53;0.30;;;-1.10;99.90;;;;;;5095338;28;20311;-65
2024/01/18 07:01:10;;;;;;;4.32;0.20;;;-1.10;99.90;;;;;;5095521;28;20369;-63
2024/01/18 07:03:36;;;;;;;4.60;0.30;;;-1.70;99.90;;;;;;5096193;28;20375;-64
2024/01/18 07:06:04;;;;;;;8.57;0.30;;;-1.20;99.90;;;;;;5095407;28;20042;-63
2024/01/18 07:08:30;;;;;;;4.88;0.30;;;-1.60;99.90;;;;;;5099164;28;20040;-63
2024/01/18 07:10:56;;;;;;;6.30;0.82;;;-1.60;99.90;;;;;;5096250;28;20035;-63
2024/01/18 07:13:22;;;;;;;5.80;0.40;;;-1.90;99.90;;;;;;5095236;28;20131;-63
2024/01/18 07:15:48;;;;;;;6.53;0.40;;;-2.30;99.90;;;;;;5062796;28;20185;-63
2024/01/18 07:18:14;;;;;;;10.45;0.57;;;-1.60;99.90;;;;;;5097154;28;20035;-63
2024/01/18 07:20:40;;;;;;;7.47;0.40;;;-2.10;99.90;;;;;;5078687;28;20118;-63
2024/01/18 07:23:05;;;;;;;7.45;0.47;;;-1.60;99.90;;;;;;5094175;28;20074;-63
2024/01/18 07:25:32;;;;;;;3.38;0.28;;;-2.10;99.90;;;;;;5079288;28;20255;-64
2024/01/18 07:27:57;;;;;;;7.43;0.38;;;-1.40;99.90;;;;;;5078754;28;20110;-63
2024/01/18 07:30:23;;;;;;;5.22;0.30;;;-1.10;99.90;;;;;;5079594;28;20098;-63
2024/01/18 07:32:52;;;;;;;6.53;0.40;;;-1.80;99.90;;;;;;5078036;28;20105;-63
2024/01/18 07:35:18;;;;;;;5.82;0.40;;;-1.00;99.90;;;;;;5094807;28;20585;-64
2024/01/18 07:37:44;;;;;;;3.70;0.20;;;-1.70;99.90;;;;;;5061068;28;20043;-63
2024/01/18 07:40:10;;;;;;;7.45;0.50;;;-1.60;99.90;;;;;;5061195;28;20311;-63
2024/01/18 07:42:36;;;;;;;8.05;0.40;;;-1.20;99.90;;;;;;5064723;28;20345;-63
2024/01/18 07:45:01;;;;;;;6.53;0.50;;;-1.00;99.90;;;;;;5061643;28;20042;-65
2024/01/18 07:47:27;;;;;;;4.30;0.40;;;-1.40;99.90;;;;;;5095756;28;20036;-65
2024/01/18 07:49:53;;;;;;;7.57;0.70;;;-1.30;99.90;;;;;;5078229;28;20034;-63
2024/01/18 07:52:19;;;;;;;7.78;0.50;;;-2.10;99.90;;;;;;5100451;28;20124;-64
2024/01/18 07:54:45;;;;;;;13.95;0.50;;;-1.40;99.90;;;;;;5094979;28;20065;-63
2024/01/18 07:57:11;;;;;;;9.50;0.73;;;-1.40;99.90;;;;;;5067478;28;20509;-64
2024/01/18 07:59:37;;;;;;;14.07;3.05;;;-2.00;99.90;;;;;;5078927;28;20040;-63
2024/01/18 08:02:02;;;;;;;12.15;3.10;;;-2.30;99.90;;;;;;5099681;27;20043;-63
2024/01/18 08:04:29;;;;;;;12.02;3.47;;;-2.20;99.90;;;;;;5099001;28;20047;-63
2024/01/18 08:06:56;;;;;;;9.02;2.83;;;-1.80;99.90;;;;;;5065128;28;20039;-64
2024/01/18 08:09:21;;;;;;;10.95;2.42;;;-1.80;99.90;;;;;;5099618;28;20136;-64
2024/01/18 08:11:47;;;;;;;16.45;2.40;;;-1.70;99.90;;;;;;5098845;28;20537;-64
2024/01/18 08:14:13;;;;;;;7.97;1.42;;;-1.70;99.90;;;;;;5052861;28;20104;-64
2024/01/18 08:16:39;;;;;;;13.90;2.03;;;-1.10;99.90;;;;;;5053340;28;20039;-65
2024/01/18 08:19:05;;;;;;;7.28;1.33;;;-1.10;99.90;;;;;;5065445;28;20031;-64
2024/01/18 08:21:31;;;;;;;9.52;0.90;;;-1.00;99.90;;;;;;5097153;28;20153;-64
2024/01/18 08:23:57;;;;;;;11.25;0.85;;;-1.30;99.90;;;;;;5064474;28;20070;-64
2024/01/18 08:26:23;;;;;;;6.70;0.70;;;-1.60;99.90;;;;;;5081340;28;20873;-64
2024/01/18 08:28:48;;;;;;;8.63;0.77;;;-1.60;99.90;;;;;;5081540;28;20162;-64
2024/01/18 08:31:14;;;;;;;8.10;0.90;;;-1.10;99.90;;;;;;5081934;28;20079;-64
2024/01/18 08:33:40;;;;;;;5.18;0.77;;;-1.60;99.90;;;;;;5075334;28;20091;-65
2024/01/18 08:36:08;;;;;;;8.32;0.80;;;-1.40;99.90;;;;;;5067893;28;20067;-64
2024/01/18 08:38:33;;;;;;;7.65;0.75;;;-1.50;99.90;;;;;;5081193;28;20698;-64
2024/01/18 08:40:59;;;;;;;7.90;0.50;;;-1.60;99.90;;;;;;5073280;28;20039;-63
2024/01/18 08:43:26;;;;;;;5.57;0.60;;;-1.70;99.90;;;;;;5090057;28;20562;-64
2024/01/18 08:45:56;;;;;;;7.13;0.60;;;-1.60;99.90;;;;;;5074701;28;20042;-64
2024/01/18 08:48:21;;;;;;;5.35;0.50;;;-1.50;99.90;;;;;;5103276;27;20050;-65
2024/01/18 08:50:47;;;;;;;5.28;0.50;;;-1.50;99.90;;;;;;5063992;28;20040;-64
2024/01/18 08:53:42;;;;;;;3.85;0.40;;;-1.50;99.90;;;;;;5082502;28;20105;-64
2024/01/18 09:00:07;;;;;;;6.05;0.50;;;-1.10;99.90;;;;;;5099692;28;20060;-64
2024/01/18 09:09:54;;;;;;;5.57;0.60;;;-0.50;99.90;;;;;;5067578;28;20057;-64
2024/01/18 09:12:20;;;;;;;3.95;0.60;;;-0.40;99.90;;;;;;5069714;28;20031;-64
2024/01/18 09:14:46;;;;;;;5.60;0.73;;;-0.30;99.90;;;;;;5073904;28;20426;-63
2024/01/18 09:17:11;;;;;;;3.30;0.65;;;-0.30;99.90;;;;;;5066820;28;20043;-64
2024/01/18 09:24:12;;;;;;;8.43;0.82;;;-0.50;99.90;;;;;;5082328;28;20481;-64
2024/01/18 09:26:38;;;;;;;6.97;0.43;;;-0.30;99.90;;;;;;5081378;28;20031;-66
2024/01/18 09:29:57;;;;;;;12.75;1.00;;;-0.20;99.90;;;;;;5065283;28;20507;-65
2024/01/18 09:32:55;;;;;;;8.43;0.95;;;-0.10;99.90;;;;;;5087251;28;20067;-65
2024/01/18 09:35:21;;;;;;;6.68;0.45;;;0.40;99.90;;;;;;5063959;28;20039;-65
2024/01/18 09:37:47;;;;;;;6.30;0.40;;;0.30;99.90;;;;;;5046931;28;20043;-65
2024/01/18 09:40:13;;;;;;;4.70;0.52;;;0.40;99.90;;;;;;5080709;28;20662;-65
2024/01/18 09:42:45;;;;;;;4.53;0.40;;;0.50;99.90;;;;;;5061542;28;20433;-65
2024/01/18 09:45:14;;;;;;;3.70;0.40;;;0.60;99.90;;;;;;5077687;28;20544;-66
2024/01/18 09:47:42;;;;;;;6.30;0.40;;;0.60;99.90;;;;;;5068513;27;20446;-65
2024/01/18 09:50:09;;;;;;;3.92;0.40;;;1.00;99.90;;;;;;5062750;28;20035;-65
2024/01/18 09:52:35;;;;;;;8.38;0.35;;;0.80;99.90;;;;;;5052176;28;20085;-64
2024/01/18 09:55:00;;;;;;;5.60;0.70;;;1.10;99.90;;;;;;5062626;28;20039;-64
2024/01/18 09:57:32;;;;;;;3.47;0.30;;;1.70;99.90;;;;;;5052695;27;20035;-65
2024/01/18 10:00:03;;;;;;;5.05;0.40;;;2.20;99.90;;;;;;5080780;28;20119;-65
2024/01/18 10:02:29;;;;;;;4.70;0.30;;;2.50;99.90;;;;;;5066452;28;20663;-65
2024/01/18 10:05:00;;;;;;;4.43;0.30;;;2.40;99.90;;;;;;5081371;28;20071;-64
2024/01/18 10:07:27;;;;;;;7.78;0.75;;;2.20;99.90;;;;;;5064609;28;20043;-65
2024/01/18 10:09:53;;;;;;;5.70;0.60;;;2.20;99.90;;;;;;5081549;28;20047;-65
2024/01/18 10:12:20;;;;;;;3.25;0.30;;;1.90;99.90;;;;;;5054801;28;20578;-66
2024/01/18 10:14:48;;;;;;;5.47;0.30;;;2.10;99.90;;;;;;5065586;28;20053;-65
2024/01/18 10:17:21;;;;;;;7.00;0.40;;;2.00;99.90;;;;;;5054801;28;20206;-65
2024/01/18 10:19:51;;;;;;;4.72;0.50;;;1.90;99.90;;;;;;5083233;28;20039;-66
2024/01/18 10:22:18;;;;;;;4.90;0.20;;;1.90;99.90;;;;;;5068808;28;20036;-67
2024/01/18 10:24:44;;;;;;;4.50;0.30;;;2.00;99.90;;;;;;5049929;28;20043;-66
2024/01/18 10:27:11;;;;;;;4.30;0.40;;;1.70;99.90;;;;;;5065647;28;20532;-65
2024/01/18 10:29:37;;;;;;;4.93;0.50;;;1.80;99.90;;;;;;5065535;28;20388;-66
2024/01/18 10:32:07;;;;;;;3.03;0.30;;;2.00;99.90;;;;;;5065955;28;20061;-65
2024/01/18 10:34:39;;;;;;;1.98;0.20;;;2.30;99.90;;;;;;5070436;28;20531;-65
2024/01/18 10:37:05;;;;;;;4.32;0.70;;;2.30;99.90;;;;;;5030743;28;20036;-66
2024/01/18 10:39:41;;;;;;;3.60;0.20;;;2.50;99.90;;;;;;5083728;28;20040;-66
2024/01/18 10:42:10;;;;;;;5.03;0.30;;;2.50;99.90;;;;;;5081637;28;20046;-67
2024/01/18 10:44:43;;;;;;;1.20;0.20;;;2.50;99.90;;;;;;5065576;28;20031;-66
2024/01/18 10:47:13;;;;;;;3.60;0.22;;;2.20;99.90;;;;;;5064694;28;20388;-66
2024/01/18 10:49:42;;;;;;;2.45;0.20;;;2.20;99.90;;;;;;5082986;28;20076;-66
2024/01/18 10:52:11;;;;;;;6.00;0.30;;;2.30;99.90;;;;;;5071132;28;20070;-66
2024/01/18 10:54:37;;;;;;;3.30;0.63;;;2.00;99.90;;;;;;5081604;28;20039;-67
2024/01/18 10:57:04;;;;;;;2.35;0.20;;;2.00;99.90;;;;;;5097734;28;20035;-67
2024/01/18 10:59:30;;;;;;;2.88;0.30;;;2.00;99.90;;;;;;5080867;28;20098;-67
2024/01/18 11:02:00;;;;;;;6.68;0.30;;;2.10;99.90;;;;;;5097719;28;20485;-66
2024/01/18 11:04:33;;;;;;;4.18;0.30;;;2.10;99.90;;;;;;5053720;28;20078;-66
2024/01/18 11:07:03;;;;;;;6.47;0.47;;;2.10;99.90;;;;;;5064723;28;20508;-66
2024/01/18 11:09:30;;;;;;;4.82;0.47;;;2.00;99.90;;;;;;5051305;28;20312;-67
2024/01/18 11:11:57;;;;;;;6.65;0.35;;;2.30;99.90;;;;;;5046711;28;20549;-70
2024/01/18 11:14:24;;;;;;;6.10;0.40;;;2.90;99.90;;;;;;5070324;28;20600;-65
2024/01/18 11:16:50;;;;;;;6.13;0.40;;;3.70;99.90;;;;;;5053419;28;20107;-66
2024/01/18 11:19:41;;;;;;;4.72;0.20;;;4.90;99.90;;;;;;5080519;28;20447;-67
2024/01/18 11:22:21;;;;;;;3.13;0.10;;;6.10;99.90;;;;;;5062628;28;20609;-66
2024/01/18 11:24:47;;;;;;;2.55;0.20;;;6.50;99.90;;;;;;5069195;28;20380;-67
2024/01/18 11:27:20;;;;;;;1.75;0.20;;;7.00;99.90;;;;;;5065154;28;20054;-66
2024/01/18 11:29:46;;;;;;;2.63;0.10;;;7.40;99.90;;;;;;5065351;28;20497;-68
2024/01/18 11:32:16;;;;;;;3.45;0.15;;;8.10;99.90;;;;;;5101523;28;20062;-67
2024/01/18 11:34:42;;;;;;;5.07;0.32;;;8.50;99.90;;;;;;5101073;28;20044;-68
2024/01/18 11:37:28;;;;;;;4.95;0.30;;;8.60;99.90;;;;;;5069638;28;20052;-67
2024/01/18 11:39:54;;;;;;;4.90;0.30;;;8.90;99.90;;;;;;5086299;28;20290;-67
2024/01/18 11:42:21;;;;;;;2.15;0.10;;;9.10;99.90;;;;;;5104399;27;20527;-67
2024/01/18 11:45:12;;;;;;;4.25;0.13;;;9.50;99.90;;;;;;5087661;28;20043;-67
2024/01/18 11:47:38;;;;;;;0.98;0.08;;;9.30;99.90;;;;;;5103675;28;20032;-67
2024/01/18 11:50:05;;;;;;;2.00;0.20;;;9.20;99.90;;;;;;5106976;28;20118;-68
2024/01/18 11:52:36;;;;;;;2.35;0.20;;;9.30;99.90;;;;;;5110251;27;20039;-66
2024/01/18 11:55:03;;;;;;;5.13;0.35;;;9.40;99.90;;;;;;5090531;27;20157;-67
2024/01/18 11:57:31;;;;;;;4.70;0.30;;;9.60;99.90;;;;;;5122696;27;20732;-66
2024/01/18 11:59:58;;;;;;;3.85;0.20;;;9.80;99.90;;;;;;5109597;27;20051;-66
2024/01/18 12:02:28;;;;;;;3.05;0.20;;;10.10;99.90;;;;;;5088218;28;20105;-66
2024/01/18 12:04:55;;;;;;;4.22;0.20;;;10.30;99.90;;;;;;5089216;28;20036;-66
2024/01/18 12:07:21;;;;;;;2.25;0.10;;;10.50;99.90;;;;;;5086944;28;20043;-66
2024/01/18 12:09:47;;;;;;;3.97;0.20;;;10.30;99.90;;;;;;5086405;28;20614;-66
2024/01/18 12:12:14;;;;;;;2.05;0.17;;;10.50;99.90;;;;;;5103145;28;20039;-67
2024/01/18 12:14:44;;;;;;;2.83;0.10;;;10.20;99.90;;;;;;5069708;28;20074;-66
2024/01/18 12:17:11;;;;;;;4.60;0.20;;;9.90;99.90;;;;;;5102963;28;20756;-66
2024/01/18 12:19:41;;;;;;;2.58;0.10;;;9.60;99.90;;;;;;5086906;28;20039;-66
2024/01/18 12:22:12;;;;;;;4.13;0.10;;;9.50;99.90;;;;;;5070098;28;20036;-65
2024/01/18 12:24:39;;;;;;;4.20;0.10;;;9.50;99.90;;;;;;5103336;28;20048;-66
2024/01/18 12:27:05;;;;;;;3.63;0.20;;;9.40;99.90;;;;;;5086924;28;20039;-65
2024/01/18 12:29:32;;;;;;;2.17;0.20;;;9.30;99.90;;;;;;5085635;28;20255;-67
2024/01/18 12:32:00;;;;;;;4.80;0.17;;;9.10;99.90;;;;;;5103018;28;20036;-66
2024/01/18 12:34:30;;;;;;;2.67;0.20;;;9.00;99.90;;;;;;5069333;28;21168;-66
2024/01/18 12:36:56;;;;;;;4.07;0.20;;;9.00;99.90;;;;;;5086259;28;20035;-66
2024/01/18 12:39:22;;;;;;;5.00;0.20;;;8.80;99.90;;;;;;5104689;28;20096;-66
2024/01/18 12:41:53;;;;;;;1.80;0.10;;;8.90;99.90;;;;;;5087775;28;20031;-66
2024/01/18 12:44:20;;;;;;;5.20;0.20;;;8.60;99.90;;;;;;5104177;28;20579;-67
2024/01/18 12:46:48;;;;;;;3.45;0.25;;;8.60;99.90;;;;;;5104019;28;20378;-66
2024/01/18 12:49:15;;;;;;;4.07;0.20;;;8.70;99.90;;;;;;5086300;28;20039;-67
2024/01/18 12:51:43;;;;;;;4.30;0.20;;;9.10;99.90;;;;;;5104443;28;20096;-68
2024/01/18 12:54:09;;;;;;;3.92;0.20;;;9.40;99.90;;;;;;5087766;28;20051;-67
2024/01/18 12:56:35;;;;;;;3.67;0.20;;;9.40;99.90;;;;;;5068809;28;20043;-67
2024/01/18 12:59:09;;;;;;;3.22;0.20;;;8.90;99.90;;;;;;5071011;27;20493;-68
2024/01/18 13:01:35;;;;;;;3.33;0.20;;;8.70;99.90;;;;;;5074824;28;20047;-69
2024/01/18 13:04:28;;;;;;;5.03;0.20;;;8.20;99.90;;;;;;5064985;28;20541;-67